sensor_id;sensor_type;location;lat;lon;timestamp;P1;durP1;ratioP1;P2;durP2;ratioP2
25049;SDS011;13046;49.814;9.918;2023-04-06T00:00:47;17.88;;;12.70;;
25049;SDS011;13046;49.814;9.918;2023-04-06T00:03:14;15.75;;;11.70;;
25049;SDS011;13046;49.814;9.918;2023-04-06T00:05:40;13.77;;;12.18;;
25049;SDS011;13046;49.814;9.918;2023-04-06T00:08:06;13.65;;;12.15;;
25049;SDS011;13046;49.814;9.918;2023-04-06T00:10:33;16.85;;;12.70;;
25049;SDS011;13046;49.814;9.918;2023-04-06T00:12:59;15.23;;;11.88;;
25049;SDS011;13046;49.814;9.918;2023-04-06T00:15:25;16.52;;;11.13;;
25049;SDS011;13046;49.814;9.918;2023-04-06T00:17:51;13.00;;;10.80;;
25049;SDS011;13046;49.814;9.918;2023-04-06T00:20:18;17.92;;;11.35;;
25049;SDS011;13046;49.814;9.918;2023-04-06T00:22:44;13.48;;;11.32;;
25049;SDS011;13046;49.814;9.918;2023-04-06T00:25:11;16.02;;;12.15;;
25049;SDS011;13046;49.814;9.918;2023-04-06T00:27:38;14.52;;;11.07;;
25049;SDS011;13046;49.814;9.918;2023-04-06T00:30:04;14.07;;;11.05;;
25049;SDS011;13046;49.814;9.918;2023-04-06T00:32:31;16.02;;;11.90;;
25049;SDS011;13046;49.814;9.918;2023-04-06T00:34:57;15.20;;;12.82;;
25049;SDS011;13046;49.814;9.918;2023-04-06T00:37:23;19.63;;;12.20;;
25049;SDS011;13046;49.814;9.918;2023-04-06T00:39:50;14.20;;;11.10;;
25049;SDS011;13046;49.814;9.918;2023-04-06T00:42:16;15.85;;;10.38;;
25049;SDS011;13046;49.814;9.918;2023-04-06T00:44:50;14.25;;;11.70;;
25049;SDS011;13046;49.814;9.918;2023-04-06T00:47:16;12.88;;;10.60;;
25049;SDS011;13046;49.814;9.918;2023-04-06T00:49:42;14.93;;;12.57;;
25049;SDS011;13046;49.814;9.918;2023-04-06T00:52:08;15.13;;;12.35;;
25049;SDS011;13046;49.814;9.918;2023-04-06T00:54:35;13.32;;;10.82;;
25049;SDS011;13046;49.814;9.918;2023-04-06T00:57:02;16.08;;;12.32;;
25049;SDS011;13046;49.814;9.918;2023-04-06T00:59:29;16.95;;;12.20;;
25049;SDS011;13046;49.814;9.918;2023-04-06T01:01:56;16.48;;;11.68;;
25049;SDS011;13046;49.814;9.918;2023-04-06T01:04:45;21.15;;;13.43;;
25049;SDS011;13046;49.814;9.918;2023-04-06T01:07:34;18.48;;;12.10;;
25049;SDS011;13046;49.814;9.918;2023-04-06T01:10:24;15.70;;;12.93;;
25049;SDS011;13046;49.814;9.918;2023-04-06T01:12:52;15.35;;;11.48;;
25049;SDS011;13046;49.814;9.918;2023-04-06T01:15:36;14.77;;;11.65;;
25049;SDS011;13046;49.814;9.918;2023-04-06T01:18:07;14.07;;;11.27;;
25049;SDS011;13046;49.814;9.918;2023-04-06T01:20:39;15.43;;;12.13;;
25049;SDS011;13046;49.814;9.918;2023-04-06T01:23:06;13.50;;;11.80;;
25049;SDS011;13046;49.814;9.918;2023-04-06T01:25:34;20.33;;;13.30;;
25049;SDS011;13046;49.814;9.918;2023-04-06T01:28:04;14.50;;;12.25;;
25049;SDS011;13046;49.814;9.918;2023-04-06T01:30:49;19.98;;;11.32;;
25049;SDS011;13046;49.814;9.918;2023-04-06T01:33:36;12.65;;;10.93;;
25049;SDS011;13046;49.814;9.918;2023-04-06T01:36:05;19.90;;;11.80;;
25049;SDS011;13046;49.814;9.918;2023-04-06T01:38:32;15.60;;;11.75;;
25049;SDS011;13046;49.814;9.918;2023-04-06T01:40:58;14.52;;;12.60;;
25049;SDS011;13046;49.814;9.918;2023-04-06T01:43:29;13.43;;;11.02;;
25049;SDS011;13046;49.814;9.918;2023-04-06T01:46:04;19.70;;;12.65;;
25049;SDS011;13046;49.814;9.918;2023-04-06T01:48:34;18.10;;;12.65;;
25049;SDS011;13046;49.814;9.918;2023-04-06T01:51:09;17.70;;;13.73;;
25049;SDS011;13046;49.814;9.918;2023-04-06T01:53:44;19.17;;;13.73;;
25049;SDS011;13046;49.814;9.918;2023-04-06T01:56:10;19.60;;;12.50;;
25049;SDS011;13046;49.814;9.918;2023-04-06T01:58:41;18.55;;;13.65;;
25049;SDS011;13046;49.814;9.918;2023-04-06T02:01:09;18.73;;;12.85;;
25049;SDS011;13046;49.814;9.918;2023-04-06T02:03:47;18.23;;;13.38;;
25049;SDS011;13046;49.814;9.918;2023-04-06T02:06:14;14.13;;;12.63;;
25049;SDS011;13046;49.814;9.918;2023-04-06T02:08:40;16.85;;;13.55;;
25049;SDS011;13046;49.814;9.918;2023-04-06T02:11:06;15.02;;;12.88;;
25049;SDS011;13046;49.814;9.918;2023-04-06T02:13:38;14.13;;;11.57;;
25049;SDS011;13046;49.814;9.918;2023-04-06T02:16:04;14.25;;;11.40;;
25049;SDS011;13046;49.814;9.918;2023-04-06T02:18:31;14.57;;;12.18;;
25049;SDS011;13046;49.814;9.918;2023-04-06T02:20:57;17.20;;;12.40;;
25049;SDS011;13046;49.814;9.918;2023-04-06T02:23:23;13.18;;;11.73;;
25049;SDS011;13046;49.814;9.918;2023-04-06T02:25:49;16.38;;;12.73;;
25049;SDS011;13046;49.814;9.918;2023-04-06T02:28:15;17.27;;;12.35;;
25049;SDS011;13046;49.814;9.918;2023-04-06T02:30:41;17.35;;;12.75;;
25049;SDS011;13046;49.814;9.918;2023-04-06T02:33:07;16.65;;;11.60;;
25049;SDS011;13046;49.814;9.918;2023-04-06T02:35:41;15.88;;;12.07;;
25049;SDS011;13046;49.814;9.918;2023-04-06T02:38:07;14.10;;;11.90;;
25049;SDS011;13046;49.814;9.918;2023-04-06T02:40:33;19.17;;;12.65;;
25049;SDS011;13046;49.814;9.918;2023-04-06T02:43:07;16.70;;;13.55;;
25049;SDS011;13046;49.814;9.918;2023-04-06T02:45:34;14.98;;;12.00;;
25049;SDS011;13046;49.814;9.918;2023-04-06T02:48:01;19.88;;;11.55;;
25049;SDS011;13046;49.814;9.918;2023-04-06T02:50:29;14.60;;;11.38;;
25049;SDS011;13046;49.814;9.918;2023-04-06T02:52:59;17.42;;;12.45;;
25049;SDS011;13046;49.814;9.918;2023-04-06T02:55:26;14.50;;;12.93;;
25049;SDS011;13046;49.814;9.918;2023-04-06T02:57:52;18.33;;;12.68;;
25049;SDS011;13046;49.814;9.918;2023-04-06T03:00:22;16.70;;;12.30;;
25049;SDS011;13046;49.814;9.918;2023-04-06T03:02:48;14.80;;;11.98;;
25049;SDS011;13046;49.814;9.918;2023-04-06T03:05:16;17.00;;;11.93;;
25049;SDS011;13046;49.814;9.918;2023-04-06T03:07:44;12.88;;;11.15;;
25049;SDS011;13046;49.814;9.918;2023-04-06T03:10:21;13.68;;;11.32;;
25049;SDS011;13046;49.814;9.918;2023-04-06T03:12:48;16.50;;;12.15;;
25049;SDS011;13046;49.814;9.918;2023-04-06T03:15:41;21.27;;;13.18;;
25049;SDS011;13046;49.814;9.918;2023-04-06T03:18:13;18.20;;;12.70;;
25049;SDS011;13046;49.814;9.918;2023-04-06T03:20:44;20.67;;;13.02;;
25049;SDS011;13046;49.814;9.918;2023-04-06T03:23:13;15.07;;;13.02;;
25049;SDS011;13046;49.814;9.918;2023-04-06T03:25:41;16.23;;;13.98;;
25049;SDS011;13046;49.814;9.918;2023-04-06T03:28:10;19.45;;;13.20;;
25049;SDS011;13046;49.814;9.918;2023-04-06T03:30:46;12.85;;;11.35;;
25049;SDS011;13046;49.814;9.918;2023-04-06T03:33:16;16.42;;;12.75;;
25049;SDS011;13046;49.814;9.918;2023-04-06T03:35:50;17.15;;;13.30;;
25049;SDS011;13046;49.814;9.918;2023-04-06T03:38:17;17.27;;;13.23;;
25049;SDS011;13046;49.814;9.918;2023-04-06T03:40:43;15.38;;;11.98;;
25049;SDS011;13046;49.814;9.918;2023-04-06T03:43:09;15.70;;;11.45;;
25049;SDS011;13046;49.814;9.918;2023-04-06T03:45:36;18.48;;;12.95;;
25049;SDS011;13046;49.814;9.918;2023-04-06T03:48:04;16.60;;;12.80;;
25049;SDS011;13046;49.814;9.918;2023-04-06T03:50:33;15.57;;;12.95;;
25049;SDS011;13046;49.814;9.918;2023-04-06T03:52:59;19.60;;;14.02;;
25049;SDS011;13046;49.814;9.918;2023-04-06T03:55:28;16.98;;;13.30;;
25049;SDS011;13046;49.814;9.918;2023-04-06T03:57:55;16.45;;;13.23;;
25049;SDS011;13046;49.814;9.918;2023-04-06T04:00:22;19.23;;;13.30;;
25049;SDS011;13046;49.814;9.918;2023-04-06T04:02:48;18.70;;;13.48;;
25049;SDS011;13046;49.814;9.918;2023-04-06T04:05:14;17.85;;;13.20;;
25049;SDS011;13046;49.814;9.918;2023-04-06T04:07:41;23.55;;;15.70;;
25049;SDS011;13046;49.814;9.918;2023-04-06T04:10:09;21.90;;;17.20;;
25049;SDS011;13046;49.814;9.918;2023-04-06T04:12:35;28.70;;;16.58;;
25049;SDS011;13046;49.814;9.918;2023-04-06T04:15:01;21.10;;;15.05;;
25049;SDS011;13046;49.814;9.918;2023-04-06T04:17:28;22.77;;;14.25;;
25049;SDS011;13046;49.814;9.918;2023-04-06T04:19:54;23.23;;;17.77;;
25049;SDS011;13046;49.814;9.918;2023-04-06T04:22:20;24.25;;;18.88;;
25049;SDS011;13046;49.814;9.918;2023-04-06T04:24:46;22.88;;;15.48;;
25049;SDS011;13046;49.814;9.918;2023-04-06T04:27:12;20.77;;;14.20;;
25049;SDS011;13046;49.814;9.918;2023-04-06T04:29:39;21.00;;;14.68;;
25049;SDS011;13046;49.814;9.918;2023-04-06T04:32:09;18.95;;;14.02;;
25049;SDS011;13046;49.814;9.918;2023-04-06T04:34:35;18.98;;;14.43;;
25049;SDS011;13046;49.814;9.918;2023-04-06T04:37:03;23.52;;;16.40;;
25049;SDS011;13046;49.814;9.918;2023-04-06T04:39:42;21.63;;;14.82;;
25049;SDS011;13046;49.814;9.918;2023-04-06T04:42:08;18.98;;;13.98;;
25049;SDS011;13046;49.814;9.918;2023-04-06T04:44:40;18.92;;;14.40;;
25049;SDS011;13046;49.814;9.918;2023-04-06T04:47:06;20.85;;;15.98;;
25049;SDS011;13046;49.814;9.918;2023-04-06T04:49:40;24.90;;;17.25;;
25049;SDS011;13046;49.814;9.918;2023-04-06T04:52:06;25.45;;;16.88;;
25049;SDS011;13046;49.814;9.918;2023-04-06T04:54:50;28.38;;;15.10;;
25049;SDS011;13046;49.814;9.918;2023-04-06T04:57:23;24.57;;;16.43;;
25049;SDS011;13046;49.814;9.918;2023-04-06T04:59:49;23.40;;;15.18;;
25049;SDS011;13046;49.814;9.918;2023-04-06T05:02:17;23.50;;;15.40;;
25049;SDS011;13046;49.814;9.918;2023-04-06T05:05:06;21.65;;;15.65;;
25049;SDS011;13046;49.814;9.918;2023-04-06T05:07:32;22.88;;;15.70;;
25049;SDS011;13046;49.814;9.918;2023-04-06T05:10:00;28.08;;;20.33;;
25049;SDS011;13046;49.814;9.918;2023-04-06T05:12:29;26.85;;;17.63;;
25049;SDS011;13046;49.814;9.918;2023-04-06T05:15:04;19.80;;;14.25;;
25049;SDS011;13046;49.814;9.918;2023-04-06T05:17:30;19.25;;;13.10;;
25049;SDS011;13046;49.814;9.918;2023-04-06T05:19:57;21.23;;;17.33;;
25049;SDS011;13046;49.814;9.918;2023-04-06T05:22:25;26.27;;;16.58;;
25049;SDS011;13046;49.814;9.918;2023-04-06T05:25:09;21.42;;;15.90;;
25049;SDS011;13046;49.814;9.918;2023-04-06T05:27:37;23.20;;;16.15;;
25049;SDS011;13046;49.814;9.918;2023-04-06T05:30:08;22.73;;;16.10;;
25049;SDS011;13046;49.814;9.918;2023-04-06T05:32:40;25.65;;;16.48;;
25049;SDS011;13046;49.814;9.918;2023-04-06T05:35:07;22.25;;;18.15;;
25049;SDS011;13046;49.814;9.918;2023-04-06T05:37:34;23.20;;;16.42;;
25049;SDS011;13046;49.814;9.918;2023-04-06T05:40:01;21.23;;;17.48;;
25049;SDS011;13046;49.814;9.918;2023-04-06T05:42:35;19.60;;;15.73;;
25049;SDS011;13046;49.814;9.918;2023-04-06T05:45:04;23.63;;;16.67;;
25049;SDS011;13046;49.814;9.918;2023-04-06T05:47:30;25.48;;;20.63;;
25049;SDS011;13046;49.814;9.918;2023-04-06T05:52:33;25.42;;;19.13;;
25049;SDS011;13046;49.814;9.918;2023-04-06T05:55:00;29.10;;;20.67;;
25049;SDS011;13046;49.814;9.918;2023-04-06T05:57:26;27.92;;;19.20;;
25049;SDS011;13046;49.814;9.918;2023-04-06T05:59:53;26.05;;;19.85;;
25049;SDS011;13046;49.814;9.918;2023-04-06T06:02:22;26.02;;;18.88;;
25049;SDS011;13046;49.814;9.918;2023-04-06T06:04:50;23.67;;;17.98;;
25049;SDS011;13046;49.814;9.918;2023-04-06T06:07:17;23.77;;;18.38;;
25049;SDS011;13046;49.814;9.918;2023-04-06T06:09:51;24.02;;;17.02;;
25049;SDS011;13046;49.814;9.918;2023-04-06T06:12:24;24.00;;;17.48;;
25049;SDS011;13046;49.814;9.918;2023-04-06T06:14:51;25.08;;;19.23;;
25049;SDS011;13046;49.814;9.918;2023-04-06T06:17:18;27.88;;;20.08;;
25049;SDS011;13046;49.814;9.918;2023-04-06T06:19:46;27.88;;;19.52;;
25049;SDS011;13046;49.814;9.918;2023-04-06T06:22:12;99.80;;;56.67;;
25049;SDS011;13046;49.814;9.918;2023-04-06T06:24:41;101.47;;;57.60;;
25049;SDS011;13046;49.814;9.918;2023-04-06T06:27:09;52.83;;;34.45;;
25049;SDS011;13046;49.814;9.918;2023-04-06T06:29:36;36.50;;;28.83;;
25049;SDS011;13046;49.814;9.918;2023-04-06T06:32:03;35.95;;;23.38;;
25049;SDS011;13046;49.814;9.918;2023-04-06T06:34:29;32.88;;;19.55;;
25049;SDS011;13046;49.814;9.918;2023-04-06T06:36:58;23.55;;;17.27;;
25049;SDS011;13046;49.814;9.918;2023-04-06T06:39:24;24.55;;;18.88;;
25049;SDS011;13046;49.814;9.918;2023-04-06T06:41:51;23.85;;;19.10;;
25049;SDS011;13046;49.814;9.918;2023-04-06T06:44:22;20.75;;;18.38;;
25049;SDS011;13046;49.814;9.918;2023-04-06T06:46:49;27.58;;;19.13;;
25049;SDS011;13046;49.814;9.918;2023-04-06T06:49:17;24.42;;;19.50;;
25049;SDS011;13046;49.814;9.918;2023-04-06T06:51:43;29.85;;;22.85;;
25049;SDS011;13046;49.814;9.918;2023-04-06T06:54:10;30.25;;;21.92;;
25049;SDS011;13046;49.814;9.918;2023-04-06T06:56:37;32.28;;;21.75;;
25049;SDS011;13046;49.814;9.918;2023-04-06T06:59:03;28.20;;;21.13;;
25049;SDS011;13046;49.814;9.918;2023-04-06T07:01:30;35.92;;;23.40;;
25049;SDS011;13046;49.814;9.918;2023-04-06T07:03:56;32.72;;;21.65;;
25049;SDS011;13046;49.814;9.918;2023-04-06T07:06:22;30.48;;;22.42;;
25049;SDS011;13046;49.814;9.918;2023-04-06T07:08:48;32.33;;;22.08;;
25049;SDS011;13046;49.814;9.918;2023-04-06T07:11:15;29.75;;;23.08;;
25049;SDS011;13046;49.814;9.918;2023-04-06T07:13:41;30.30;;;23.25;;
25049;SDS011;13046;49.814;9.918;2023-04-06T07:16:08;27.77;;;21.70;;
25049;SDS011;13046;49.814;9.918;2023-04-06T07:18:34;32.80;;;23.35;;
25049;SDS011;13046;49.814;9.918;2023-04-06T07:21:00;31.58;;;23.08;;
25049;SDS011;13046;49.814;9.918;2023-04-06T07:23:26;33.08;;;24.77;;
25049;SDS011;13046;49.814;9.918;2023-04-06T07:25:52;27.85;;;21.65;;
25049;SDS011;13046;49.814;9.918;2023-04-06T07:28:19;28.63;;;21.33;;
25049;SDS011;13046;49.814;9.918;2023-04-06T07:30:45;28.00;;;23.45;;
25049;SDS011;13046;49.814;9.918;2023-04-06T07:33:12;28.63;;;21.00;;
25049;SDS011;13046;49.814;9.918;2023-04-06T07:35:39;29.20;;;22.52;;
25049;SDS011;13046;49.814;9.918;2023-04-06T07:38:06;27.02;;;22.25;;
25049;SDS011;13046;49.814;9.918;2023-04-06T07:40:33;29.15;;;22.60;;
25049;SDS011;13046;49.814;9.918;2023-04-06T07:43:00;28.58;;;22.10;;
25049;SDS011;13046;49.814;9.918;2023-04-06T07:45:27;30.38;;;21.63;;
25049;SDS011;13046;49.814;9.918;2023-04-06T07:47:54;31.52;;;22.13;;
25049;SDS011;13046;49.814;9.918;2023-04-06T07:50:22;28.88;;;20.92;;
25049;SDS011;13046;49.814;9.918;2023-04-06T07:52:49;26.25;;;21.98;;
25049;SDS011;13046;49.814;9.918;2023-04-06T07:55:15;28.88;;;22.85;;
25049;SDS011;13046;49.814;9.918;2023-04-06T07:57:41;26.80;;;21.42;;
25049;SDS011;13046;49.814;9.918;2023-04-06T08:00:07;27.38;;;21.77;;
25049;SDS011;13046;49.814;9.918;2023-04-06T08:02:37;24.65;;;20.25;;
25049;SDS011;13046;49.814;9.918;2023-04-06T08:05:03;23.55;;;20.02;;
25049;SDS011;13046;49.814;9.918;2023-04-06T08:07:29;25.10;;;20.60;;
25049;SDS011;13046;49.814;9.918;2023-04-06T08:09:55;21.98;;;19.35;;
25049;SDS011;13046;49.814;9.918;2023-04-06T08:12:21;23.92;;;21.25;;
25049;SDS011;13046;49.814;9.918;2023-04-06T08:14:47;27.52;;;22.25;;
25049;SDS011;13046;49.814;9.918;2023-04-06T08:17:14;28.15;;;22.20;;
25049;SDS011;13046;49.814;9.918;2023-04-06T08:19:41;24.05;;;21.00;;
25049;SDS011;13046;49.814;9.918;2023-04-06T08:22:08;22.38;;;19.73;;
25049;SDS011;13046;49.814;9.918;2023-04-06T08:24:34;26.27;;;20.23;;
25049;SDS011;13046;49.814;9.918;2023-04-06T08:27:00;27.20;;;21.92;;
25049;SDS011;13046;49.814;9.918;2023-04-06T08:29:26;23.95;;;19.92;;
25049;SDS011;13046;49.814;9.918;2023-04-06T08:31:53;22.63;;;19.77;;
25049;SDS011;13046;49.814;9.918;2023-04-06T08:34:18;20.55;;;17.92;;
25049;SDS011;13046;49.814;9.918;2023-04-06T08:36:44;21.10;;;18.85;;
25049;SDS011;13046;49.814;9.918;2023-04-06T08:39:11;22.05;;;18.35;;
25049;SDS011;13046;49.814;9.918;2023-04-06T08:41:36;21.30;;;18.05;;
25049;SDS011;13046;49.814;9.918;2023-04-06T08:44:02;20.45;;;17.17;;
25049;SDS011;13046;49.814;9.918;2023-04-06T08:46:28;21.73;;;19.05;;
25049;SDS011;13046;49.814;9.918;2023-04-06T08:48:59;23.10;;;18.88;;
25049;SDS011;13046;49.814;9.918;2023-04-06T08:51:27;21.65;;;19.00;;
25049;SDS011;13046;49.814;9.918;2023-04-06T08:53:54;19.98;;;16.55;;
25049;SDS011;13046;49.814;9.918;2023-04-06T08:56:21;20.02;;;17.55;;
25049;SDS011;13046;49.814;9.918;2023-04-06T08:58:48;19.08;;;16.98;;
25049;SDS011;13046;49.814;9.918;2023-04-06T09:01:14;20.98;;;18.73;;
25049;SDS011;13046;49.814;9.918;2023-04-06T09:03:42;19.08;;;17.00;;
25049;SDS011;13046;49.814;9.918;2023-04-06T09:06:10;21.88;;;17.50;;
25049;SDS011;13046;49.814;9.918;2023-04-06T09:08:38;19.73;;;17.67;;
25049;SDS011;13046;49.814;9.918;2023-04-06T09:11:05;21.70;;;17.70;;
25049;SDS011;13046;49.814;9.918;2023-04-06T09:13:31;20.55;;;17.30;;
25049;SDS011;13046;49.814;9.918;2023-04-06T09:16:04;19.15;;;17.27;;
25049;SDS011;13046;49.814;9.918;2023-04-06T09:18:31;20.67;;;16.73;;
25049;SDS011;13046;49.814;9.918;2023-04-06T09:21:02;19.45;;;17.50;;
25049;SDS011;13046;49.814;9.918;2023-04-06T09:23:30;20.55;;;17.27;;
25049;SDS011;13046;49.814;9.918;2023-04-06T09:29:21;19.50;;;17.02;;
25049;SDS011;13046;49.814;9.918;2023-04-06T09:31:31;19.63;;;16.87;;
25049;SDS011;13046;49.814;9.918;2023-04-06T09:33:59;19.77;;;17.45;;
25049;SDS011;13046;49.814;9.918;2023-04-06T09:36:29;20.88;;;18.77;;
25049;SDS011;13046;49.814;9.918;2023-04-06T09:39:03;21.00;;;18.45;;
25049;SDS011;13046;49.814;9.918;2023-04-06T09:41:30;19.50;;;15.90;;
25049;SDS011;13046;49.814;9.918;2023-04-06T09:44:07;21.23;;;17.60;;
25049;SDS011;13046;49.814;9.918;2023-04-06T09:46:35;18.38;;;16.05;;
25049;SDS011;13046;49.814;9.918;2023-04-06T09:49:05;19.23;;;17.35;;
25049;SDS011;13046;49.814;9.918;2023-04-06T09:51:36;21.42;;;17.15;;
25049;SDS011;13046;49.814;9.918;2023-04-06T09:54:03;25.25;;;21.88;;
25049;SDS011;13046;49.814;9.918;2023-04-06T09:56:45;22.80;;;19.27;;
25049;SDS011;13046;49.814;9.918;2023-04-06T09:59:13;18.47;;;16.30;;
25049;SDS011;13046;49.814;9.918;2023-04-06T10:01:46;23.73;;;18.23;;
25049;SDS011;13046;49.814;9.918;2023-04-06T10:04:26;19.35;;;17.33;;
25049;SDS011;13046;49.814;9.918;2023-04-06T10:07:01;20.77;;;16.00;;
25049;SDS011;13046;49.814;9.918;2023-04-06T10:09:29;18.27;;;15.90;;
25049;SDS011;13046;49.814;9.918;2023-04-06T10:12:02;19.08;;;16.95;;
25049;SDS011;13046;49.814;9.918;2023-04-06T10:14:32;17.88;;;15.23;;
25049;SDS011;13046;49.814;9.918;2023-04-06T10:17:00;25.60;;;19.13;;
25049;SDS011;13046;49.814;9.918;2023-04-06T10:19:28;17.88;;;16.17;;
25049;SDS011;13046;49.814;9.918;2023-04-06T10:21:58;20.38;;;14.85;;
25049;SDS011;13046;49.814;9.918;2023-04-06T10:24:27;18.77;;;14.18;;
25049;SDS011;13046;49.814;9.918;2023-04-06T10:26:56;19.45;;;15.77;;
25049;SDS011;13046;49.814;9.918;2023-04-06T10:29:44;17.20;;;13.70;;
25049;SDS011;13046;49.814;9.918;2023-04-06T10:32:11;21.17;;;15.73;;
25049;SDS011;13046;49.814;9.918;2023-04-06T10:34:37;18.13;;;14.68;;
25049;SDS011;13046;49.814;9.918;2023-04-06T10:37:13;18.10;;;14.93;;
25049;SDS011;13046;49.814;9.918;2023-04-06T10:39:52;17.25;;;15.00;;
25049;SDS011;13046;49.814;9.918;2023-04-06T10:42:38;17.08;;;15.35;;
25049;SDS011;13046;49.814;9.918;2023-04-06T10:45:05;18.70;;;16.08;;
25049;SDS011;13046;49.814;9.918;2023-04-06T10:47:39;18.33;;;14.93;;
25049;SDS011;13046;49.814;9.918;2023-04-06T10:50:05;19.67;;;16.50;;
25049;SDS011;13046;49.814;9.918;2023-04-06T10:52:31;18.92;;;16.15;;
25049;SDS011;13046;49.814;9.918;2023-04-06T10:54:57;18.75;;;16.25;;
25049;SDS011;13046;49.814;9.918;2023-04-06T10:57:29;59.88;;;19.30;;
25049;SDS011;13046;49.814;9.918;2023-04-06T10:59:57;19.52;;;15.48;;
25049;SDS011;13046;49.814;9.918;2023-04-06T11:02:22;22.83;;;16.38;;
25049;SDS011;13046;49.814;9.918;2023-04-06T11:04:55;17.25;;;14.90;;
25049;SDS011;13046;49.814;9.918;2023-04-06T11:07:22;20.38;;;15.30;;
25049;SDS011;13046;49.814;9.918;2023-04-06T11:09:52;17.92;;;15.85;;
25049;SDS011;13046;49.814;9.918;2023-04-06T11:12:24;17.10;;;15.07;;
25049;SDS011;13046;49.814;9.918;2023-04-06T11:14:56;22.27;;;15.05;;
25049;SDS011;13046;49.814;9.918;2023-04-06T11:17:33;16.55;;;14.85;;
25049;SDS011;13046;49.814;9.918;2023-04-06T11:19:59;18.38;;;15.30;;
25049;SDS011;13046;49.814;9.918;2023-04-06T11:22:25;19.63;;;17.73;;
25049;SDS011;13046;49.814;9.918;2023-04-06T11:24:51;17.35;;;14.02;;
25049;SDS011;13046;49.814;9.918;2023-04-06T11:27:18;17.52;;;15.13;;
25049;SDS011;13046;49.814;9.918;2023-04-06T11:29:45;19.75;;;16.60;;
25049;SDS011;13046;49.814;9.918;2023-04-06T11:32:11;20.88;;;15.45;;
25049;SDS011;13046;49.814;9.918;2023-04-06T11:34:44;18.75;;;14.38;;
25049;SDS011;13046;49.814;9.918;2023-04-06T11:37:12;18.02;;;15.20;;
25049;SDS011;13046;49.814;9.918;2023-04-06T11:39:51;17.60;;;14.25;;
25049;SDS011;13046;49.814;9.918;2023-04-06T11:42:23;16.30;;;13.60;;
25049;SDS011;13046;49.814;9.918;2023-04-06T11:44:50;19.33;;;15.07;;
25049;SDS011;13046;49.814;9.918;2023-04-06T11:47:18;17.63;;;15.73;;
25049;SDS011;13046;49.814;9.918;2023-04-06T11:49:45;20.20;;;16.45;;
25049;SDS011;13046;49.814;9.918;2023-04-06T11:52:22;16.23;;;14.63;;
25049;SDS011;13046;49.814;9.918;2023-04-06T11:54:50;18.52;;;14.90;;
25049;SDS011;13046;49.814;9.918;2023-04-06T11:57:17;15.48;;;13.80;;
25049;SDS011;13046;49.814;9.918;2023-04-06T11:59:44;15.93;;;14.23;;
25049;SDS011;13046;49.814;9.918;2023-04-06T12:02:10;15.18;;;13.02;;
25049;SDS011;13046;49.814;9.918;2023-04-06T12:04:36;15.27;;;13.65;;
25049;SDS011;13046;49.814;9.918;2023-04-06T12:07:02;15.88;;;12.98;;
25049;SDS011;13046;49.814;9.918;2023-04-06T12:09:28;13.02;;;11.70;;
25049;SDS011;13046;49.814;9.918;2023-04-06T12:11:54;14.05;;;12.45;;
25049;SDS011;13046;49.814;9.918;2023-04-06T12:14:21;12.90;;;11.60;;
25049;SDS011;13046;49.814;9.918;2023-04-06T12:16:46;14.43;;;12.93;;
25049;SDS011;13046;49.814;9.918;2023-04-06T12:19:12;12.95;;;11.52;;
25049;SDS011;13046;49.814;9.918;2023-04-06T12:21:38;14.02;;;12.30;;
25049;SDS011;13046;49.814;9.918;2023-04-06T12:24:05;15.23;;;11.10;;
25049;SDS011;13046;49.814;9.918;2023-04-06T12:26:31;17.63;;;13.00;;
25049;SDS011;13046;49.814;9.918;2023-04-06T12:28:58;13.48;;;12.02;;
25049;SDS011;13046;49.814;9.918;2023-04-06T12:33:58;15.50;;;12.20;;
25049;SDS011;13046;49.814;9.918;2023-04-06T12:36:23;14.50;;;13.05;;
25049;SDS011;13046;49.814;9.918;2023-04-06T12:38:50;13.77;;;11.52;;
25049;SDS011;13046;49.814;9.918;2023-04-06T12:41:18;14.15;;;11.15;;
25049;SDS011;13046;49.814;9.918;2023-04-06T12:43:45;14.50;;;11.70;;
25049;SDS011;13046;49.814;9.918;2023-04-06T12:46:11;15.27;;;12.13;;
25049;SDS011;13046;49.814;9.918;2023-04-06T12:48:37;14.50;;;12.93;;
25049;SDS011;13046;49.814;9.918;2023-04-06T12:51:06;14.88;;;12.95;;
25049;SDS011;13046;49.814;9.918;2023-04-06T12:53:32;12.77;;;11.25;;
25049;SDS011;13046;49.814;9.918;2023-04-06T12:55:59;12.93;;;11.52;;
25049;SDS011;13046;49.814;9.918;2023-04-06T12:58:27;13.77;;;11.95;;
25049;SDS011;13046;49.814;9.918;2023-04-06T13:00:53;13.13;;;11.82;;
25049;SDS011;13046;49.814;9.918;2023-04-06T13:03:21;17.00;;;11.68;;
25049;SDS011;13046;49.814;9.918;2023-04-06T13:05:48;16.35;;;12.55;;
25049;SDS011;13046;49.814;9.918;2023-04-06T13:08:14;12.90;;;10.82;;
25049;SDS011;13046;49.814;9.918;2023-04-06T13:10:44;27.38;;;11.98;;
25049;SDS011;13046;49.814;9.918;2023-04-06T13:13:14;11.45;;;9.85;;
25049;SDS011;13046;49.814;9.918;2023-04-06T13:15:40;12.20;;;10.93;;
25049;SDS011;13046;49.814;9.918;2023-04-06T13:18:06;12.80;;;11.50;;
25049;SDS011;13046;49.814;9.918;2023-04-06T13:20:32;12.60;;;11.38;;
25049;SDS011;13046;49.814;9.918;2023-04-06T13:22:58;12.25;;;10.57;;
25049;SDS011;13046;49.814;9.918;2023-04-06T13:25:24;11.95;;;9.70;;
25049;SDS011;13046;49.814;9.918;2023-04-06T13:27:50;12.98;;;11.57;;
25049;SDS011;13046;49.814;9.918;2023-04-06T13:30:15;12.45;;;11.07;;
25049;SDS011;13046;49.814;9.918;2023-04-06T13:32:41;13.38;;;10.43;;
25049;SDS011;13046;49.814;9.918;2023-04-06T13:35:07;12.60;;;11.38;;
25049;SDS011;13046;49.814;9.918;2023-04-06T13:37:33;11.48;;;10.38;;
25049;SDS011;13046;49.814;9.918;2023-04-06T13:40:01;13.45;;;12.02;;
25049;SDS011;13046;49.814;9.918;2023-04-06T13:42:30;11.68;;;10.55;;
25049;SDS011;13046;49.814;9.918;2023-04-06T13:44:56;12.20;;;10.63;;
25049;SDS011;13046;49.814;9.918;2023-04-06T13:47:22;16.30;;;11.50;;
25049;SDS011;13046;49.814;9.918;2023-04-06T13:49:49;12.43;;;10.98;;
25049;SDS011;13046;49.814;9.918;2023-04-06T13:52:16;12.75;;;11.43;;
25049;SDS011;13046;49.814;9.918;2023-04-06T13:54:42;13.55;;;12.15;;
25049;SDS011;13046;49.814;9.918;2023-04-06T13:57:07;11.82;;;10.65;;
25049;SDS011;13046;49.814;9.918;2023-04-06T13:59:34;12.48;;;11.25;;
25049;SDS011;13046;49.814;9.918;2023-04-06T14:02:00;11.68;;;9.90;;
25049;SDS011;13046;49.814;9.918;2023-04-06T14:04:30;12.02;;;10.93;;
25049;SDS011;13046;49.814;9.918;2023-04-06T14:06:59;12.75;;;11.18;;
25049;SDS011;13046;49.814;9.918;2023-04-06T14:09:25;12.32;;;11.00;;
25049;SDS011;13046;49.814;9.918;2023-04-06T14:11:52;15.77;;;11.85;;
25049;SDS011;13046;49.814;9.918;2023-04-06T14:14:18;14.80;;;11.60;;
25049;SDS011;13046;49.814;9.918;2023-04-06T14:16:44;16.13;;;14.55;;
25049;SDS011;13046;49.814;9.918;2023-04-06T14:19:10;13.50;;;11.10;;
25049;SDS011;13046;49.814;9.918;2023-04-06T14:21:40;11.45;;;10.32;;
25049;SDS011;13046;49.814;9.918;2023-04-06T14:24:09;13.05;;;11.75;;
25049;SDS011;13046;49.814;9.918;2023-04-06T14:26:35;11.52;;;10.38;;
25049;SDS011;13046;49.814;9.918;2023-04-06T14:29:02;13.85;;;11.45;;
25049;SDS011;13046;49.814;9.918;2023-04-06T14:31:29;14.98;;;11.25;;
25049;SDS011;13046;49.814;9.918;2023-04-06T14:33:55;14.70;;;12.13;;
25049;SDS011;13046;49.814;9.918;2023-04-06T14:36:21;13.98;;;10.07;;